createdAt,value
2022-12-31T00:00:50.870Z,1.17
2022-12-31T00:01:50.872Z,1.33
2022-12-31T00:02:50.860Z,1.33
2022-12-31T00:03:50.810Z,0.44
2022-12-31T00:04:50.810Z,0.89
2022-12-31T00:05:50.804Z,0.89
2022-12-31T00:06:50.816Z,0.89
2022-12-31T00:07:50.806Z,0.89
2022-12-31T00:08:50.831Z,0.89
2022-12-31T00:09:50.807Z,0.72
2022-12-31T00:10:50.824Z,0.72
2022-12-31T00:11:50.808Z,0.17
2022-12-31T00:12:50.807Z,0.17
2022-12-31T00:13:50.823Z,0.72
2022-12-31T00:14:50.817Z,0.61
2022-12-31T00:15:50.808Z,0.17
2022-12-31T00:16:50.849Z,0.61
2022-12-31T00:17:50.804Z,0.72
2022-12-31T00:18:50.814Z,0.89
2022-12-31T00:19:50.822Z,0.89
2022-12-31T00:20:50.817Z,0.89
2022-12-31T00:21:50.809Z,0.89
2022-12-31T00:22:50.817Z,0.72
2022-12-31T00:23:50.820Z,0.89
2022-12-31T00:24:50.870Z,1.17
2022-12-31T00:25:50.816Z,1.33
2022-12-31T00:26:50.819Z,1.06
2022-12-31T00:27:50.826Z,1.06
2022-12-31T00:28:50.822Z,1.17
2022-12-31T00:29:50.815Z,1.33
2022-12-31T00:30:50.831Z,1.33
2022-12-31T00:31:50.818Z,1.17
2022-12-31T00:32:50.876Z,1.33
2022-12-31T00:33:50.814Z,1.33
2022-12-31T00:34:50.825Z,1.17
2022-12-31T00:35:50.808Z,1.06
2022-12-31T00:36:50.818Z,0.72
2022-12-31T00:37:50.818Z,0.72
2022-12-31T00:38:50.819Z,1.06
2022-12-31T00:39:50.827Z,0.61
2022-12-31T00:40:50.925Z,0.44
2022-12-31T00:41:50.825Z,0.44
2022-12-31T00:42:50.821Z,0.89
2022-12-31T00:43:50.833Z,0.89
2022-12-31T00:44:50.819Z,0.89
2022-12-31T00:45:50.894Z,0.89
2022-12-31T00:46:50.829Z,0.61
2022-12-31T00:47:50.820Z,0.89
2022-12-31T00:48:50.825Z,0.89
2022-12-31T00:49:50.844Z,0.89
2022-12-31T00:50:50.844Z,0.89
2022-12-31T00:51:50.866Z,0.72
2022-12-31T00:52:50.824Z,1.17
2022-12-31T00:53:50.832Z,1.33
2022-12-31T00:54:50.829Z,1.06
2022-12-31T00:55:50.843Z,0.89
2022-12-31T00:56:50.870Z,1.17
2022-12-31T00:57:50.840Z,1.17
2022-12-31T00:58:50.844Z,1.06
2022-12-31T00:59:50.855Z,0.89
2022-12-31T01:00:50.846Z,0.89
2022-12-31T01:01:50.925Z,0.89
2022-12-31T01:02:50.942Z,0.89
2022-12-31T01:03:50.856Z,0.89
2022-12-31T01:04:50.855Z,0.89
2022-12-31T01:05:50.847Z,1.17
2022-12-31T01:06:50.845Z,0.89
2022-12-31T01:07:50.851Z,1.33
2022-12-31T01:08:50.853Z,0.89
2022-12-31T01:09:50.853Z,1.17
2022-12-31T01:10:50.836Z,0.89
2022-12-31T01:11:50.860Z,1.06
2022-12-31T01:12:50.881Z,1.06
2022-12-31T01:13:50.849Z,1.06
2022-12-31T01:14:50.860Z,1.33
2022-12-31T01:15:50.858Z,1.33
2022-12-31T01:16:50.850Z,1.17
2022-12-31T01:17:50.860Z,1.33
2022-12-31T01:18:50.858Z,1.06
2022-12-31T01:19:50.858Z,1.06
2022-12-31T01:20:50.865Z,0.61
2022-12-31T01:21:50.871Z,1.06
2022-12-31T01:22:50.854Z,0.89
2022-12-31T01:23:50.879Z,1.06
2022-12-31T01:24:50.855Z,0.89
2022-12-31T01:25:50.857Z,1.06
2022-12-31T01:26:50.883Z,1.06
2022-12-31T01:27:50.866Z,0.89
2022-12-31T01:28:50.896Z,1.06
2022-12-31T01:29:50.872Z,1.06
2022-12-31T01:30:50.968Z,1.17
2022-12-31T01:31:50.875Z,1.06
2022-12-31T01:32:50.890Z,1.06
2022-12-31T01:33:50.910Z,1.5
2022-12-31T01:34:50.876Z,1.33
2022-12-31T01:35:50.870Z,1.33
2022-12-31T01:36:50.874Z,1.33
2022-12-31T01:37:50.887Z,1.33
2022-12-31T01:38:50.871Z,0.89
2022-12-31T01:39:50.877Z,1.33
2022-12-31T01:40:50.878Z,1.33
2022-12-31T01:41:50.889Z,1.33
2022-12-31T01:42:50.881Z,1.33
2022-12-31T01:43:50.886Z,1.33
2022-12-31T01:44:50.922Z,1.17
2022-12-31T01:45:50.884Z,1.17
2022-12-31T01:46:50.874Z,0.89
2022-12-31T01:47:50.900Z,0.89
2022-12-31T01:48:50.886Z,0.72
2022-12-31T01:49:50.881Z,0.28
2022-12-31T01:50:50.906Z,0.89
2022-12-31T01:51:50.875Z,0.89
2022-12-31T01:52:50.877Z,0.89
2022-12-31T01:53:50.890Z,0.72
2022-12-31T01:54:50.887Z,0.61
2022-12-31T01:55:50.890Z,0.89
2022-12-31T01:56:50.878Z,0.89
2022-12-31T01:57:50.888Z,0.89
2022-12-31T01:58:50.921Z,0.72
2022-12-31T01:59:50.893Z,0.89
2022-12-31T02:00:50.918Z,0.89
2022-12-31T02:01:50.973Z,0.89
2022-12-31T02:02:50.938Z,0.89
2022-12-31T02:03:50.908Z,0.61
2022-12-31T02:04:50.893Z,1.06
2022-12-31T02:05:50.894Z,0.89
2022-12-31T02:06:50.896Z,0.72
2022-12-31T02:07:50.896Z,0.89
2022-12-31T02:08:50.889Z,0.72
2022-12-31T02:09:50.890Z,0.44
2022-12-31T02:10:50.894Z,0.61
2022-12-31T02:11:50.892Z,0.44
2022-12-31T02:12:50.897Z,0.28
2022-12-31T02:13:55.080Z,0.28
2022-12-31T02:14:50.896Z,0.44
2022-12-31T02:15:51.049Z,0.17
2022-12-31T02:16:50.922Z,0.44
2022-12-31T02:17:50.900Z,0.72
2022-12-31T02:18:50.899Z,0.72
2022-12-31T02:19:50.915Z,0.44
2022-12-31T02:20:50.904Z,0.72
2022-12-31T02:21:50.909Z,0.89
2022-12-31T02:22:50.899Z,0.72
2022-12-31T02:23:50.914Z,0.89
2022-12-31T02:24:50.914Z,0.89
2022-12-31T02:25:50.902Z,0.89
2022-12-31T02:26:50.908Z,0.72
2022-12-31T02:27:50.887Z,0.89
2022-12-31T02:28:50.908Z,0.89
2022-12-31T02:29:50.916Z,0.61
2022-12-31T02:30:50.984Z,0.89
2022-12-31T02:31:50.905Z,0.72
2022-12-31T02:32:50.941Z,0.44
2022-12-31T02:33:50.932Z,0.72
2022-12-31T02:34:50.895Z,0.72
2022-12-31T02:35:50.922Z,0.61
2022-12-31T02:36:50.903Z,0.89
2022-12-31T02:37:50.918Z,0.89
2022-12-31T02:38:50.914Z,0.89
2022-12-31T02:39:50.908Z,0.72
2022-12-31T02:40:50.903Z,0.72
2022-12-31T02:41:50.928Z,0.89
2022-12-31T02:42:55.225Z,0.89
2022-12-31T02:43:50.913Z,0.61
2022-12-31T02:44:50.912Z,0.89
2022-12-31T02:45:50.923Z,1.33
2022-12-31T02:46:50.952Z,1.06
2022-12-31T02:47:50.917Z,1.17
2022-12-31T02:48:50.946Z,1.06
2022-12-31T02:49:50.918Z,0.72
2022-12-31T02:50:50.916Z,1.06
2022-12-31T02:51:50.925Z,0.89
2022-12-31T02:52:50.909Z,1.06
2022-12-31T02:53:50.910Z,0.89
2022-12-31T02:54:50.917Z,0.89
2022-12-31T02:55:50.915Z,1.17
2022-12-31T02:56:50.930Z,0.89
2022-12-31T02:57:50.922Z,0.72
2022-12-31T02:58:50.919Z,1.06
2022-12-31T02:59:50.919Z,1.17
2022-12-31T03:00:50.953Z,0.89
2022-12-31T03:01:51.049Z,0.72
2022-12-31T03:02:50.936Z,1.17
2022-12-31T03:03:50.923Z,1.33
2022-12-31T03:04:51.016Z,1.17
2022-12-31T03:05:50.921Z,1.06
2022-12-31T03:06:50.942Z,1.06
2022-12-31T03:07:50.915Z,0.89
2022-12-31T03:08:50.933Z,0.89
2022-12-31T03:09:50.937Z,0.89
2022-12-31T03:10:50.930Z,0.89
2022-12-31T03:11:50.938Z,0.89
2022-12-31T03:12:50.926Z,0.89
2022-12-31T03:13:50.943Z,1.17
2022-12-31T03:14:50.929Z,0.89
2022-12-31T03:15:50.954Z,0.89
2022-12-31T03:16:50.930Z,1.06
2022-12-31T03:17:50.951Z,0.89
2022-12-31T03:18:50.952Z,1.17
2022-12-31T03:19:50.939Z,1.06
2022-12-31T03:20:50.951Z,1.17
2022-12-31T03:21:50.940Z,0.72
2022-12-31T03:22:50.939Z,1.06
2022-12-31T03:23:50.933Z,1.17
2022-12-31T03:24:50.940Z,1.17
2022-12-31T03:25:50.951Z,1.17
2022-12-31T03:26:50.947Z,1.17
2022-12-31T03:27:50.939Z,1.33
2022-12-31T03:28:50.950Z,1.06
2022-12-31T03:29:50.937Z,1.17
2022-12-31T03:30:50.951Z,1.17
2022-12-31T03:31:50.969Z,0.72
2022-12-31T03:32:50.952Z,1.06
2022-12-31T03:33:50.968Z,0.89
2022-12-31T03:34:50.947Z,0.89
2022-12-31T03:35:50.957Z,1.06
2022-12-31T03:36:50.965Z,1.06
2022-12-31T03:37:50.951Z,0.89
2022-12-31T03:38:52.768Z,0.44
2022-12-31T03:39:50.938Z,0.89
2022-12-31T03:40:50.949Z,1.06
2022-12-31T03:41:50.986Z,1.06
2022-12-31T03:42:50.969Z,0.72
2022-12-31T03:43:50.973Z,0.89
2022-12-31T03:44:50.956Z,0.89
2022-12-31T03:45:50.973Z,1.06
2022-12-31T03:46:50.961Z,0.89
2022-12-31T03:47:50.948Z,0.72
2022-12-31T03:48:50.974Z,0.44
2022-12-31T03:49:50.968Z,0.17
2022-12-31T03:50:50.973Z,0
2022-12-31T03:51:50.980Z,0.61
2022-12-31T03:52:50.995Z,0.61
2022-12-31T03:53:50.968Z,0.44
2022-12-31T03:54:50.971Z,0.72
2022-12-31T03:55:50.982Z,0.17
2022-12-31T03:56:53.012Z,0.72
2022-12-31T03:57:50.976Z,0.28
2022-12-31T03:58:50.968Z,0.72
2022-12-31T03:59:50.980Z,0.89
2022-12-31T04:00:51.131Z,1.17
2022-12-31T04:01:51.024Z,0.89
2022-12-31T04:02:51.015Z,0.44
2022-12-31T04:03:50.970Z,1.06
2022-12-31T04:04:50.965Z,1.33
2022-12-31T04:05:50.966Z,1.06
2022-12-31T04:06:50.974Z,0.89
2022-12-31T04:07:50.982Z,0.89
2022-12-31T04:08:51.000Z,1.17
2022-12-31T04:09:50.980Z,0.89
2022-12-31T04:10:50.982Z,0.89
2022-12-31T04:11:50.999Z,1.17
2022-12-31T04:12:50.976Z,1.33
2022-12-31T04:13:50.984Z,1.61
2022-12-31T04:14:50.981Z,1.5
2022-12-31T04:15:50.978Z,1.61
2022-12-31T04:16:51.020Z,1.5
2022-12-31T04:17:50.972Z,1.61
2022-12-31T04:18:50.975Z,0.61
2022-12-31T04:19:50.976Z,1.06
2022-12-31T04:20:50.972Z,0.44
2022-12-31T04:21:50.979Z,0.72
2022-12-31T04:22:50.980Z,0.61
2022-12-31T04:23:50.971Z,0.61
2022-12-31T04:24:51.001Z,0.89
2022-12-31T04:25:50.993Z,0.72
2022-12-31T04:26:50.978Z,0.72
2022-12-31T04:27:50.987Z,0.72
2022-12-31T04:28:50.975Z,0.89
2022-12-31T04:29:51.017Z,0.89
2022-12-31T04:30:50.978Z,0.89
2022-12-31T04:31:50.982Z,0.89
2022-12-31T04:32:50.993Z,0.89
2022-12-31T04:33:50.978Z,0.89
2022-12-31T04:34:50.980Z,0.89
2022-12-31T04:35:50.987Z,0.89
2022-12-31T04:36:50.984Z,0.61
2022-12-31T04:37:50.976Z,0.61
2022-12-31T04:38:51.001Z,0.89
2022-12-31T04:39:51.006Z,0.89
2022-12-31T04:40:51.064Z,0.89
2022-12-31T04:41:50.981Z,0.72
2022-12-31T04:42:50.980Z,0.61
2022-12-31T04:43:50.991Z,0.89
2022-12-31T04:44:50.983Z,0.44
2022-12-31T04:45:51.004Z,0.89
2022-12-31T04:46:51.000Z,0.89
2022-12-31T04:47:50.987Z,0.72
2022-12-31T04:48:50.992Z,0.89
2022-12-31T04:49:50.995Z,0.89
2022-12-31T04:50:50.993Z,1.17
2022-12-31T04:51:50.986Z,0.89
2022-12-31T04:52:50.989Z,0.89
2022-12-31T04:53:51.001Z,0.89
2022-12-31T04:54:51.020Z,0.89
2022-12-31T04:55:50.987Z,0.72
2022-12-31T04:56:51.012Z,0.89
2022-12-31T04:57:50.995Z,0.89
2022-12-31T04:58:50.986Z,0.72
2022-12-31T04:59:50.991Z,0.72
2022-12-31T05:00:51.035Z,0.89
2022-12-31T05:01:51.040Z,0.72
2022-12-31T05:02:51.124Z,0.89
2022-12-31T05:03:50.994Z,0.72
2022-12-31T05:04:50.987Z,0.72
2022-12-31T05:05:50.975Z,0.72
2022-12-31T05:06:50.989Z,1.06
2022-12-31T05:07:51.008Z,1.17
2022-12-31T05:08:51.013Z,0.72
2022-12-31T05:09:51.002Z,1.06
2022-12-31T05:10:51.004Z,1.06
2022-12-31T05:11:51.001Z,1.06
2022-12-31T05:12:51.018Z,0.89
2022-12-31T05:13:51.020Z,0.89
2022-12-31T05:14:50.986Z,1.17
2022-12-31T05:15:50.993Z,1.17
2022-12-31T05:16:51.017Z,1.06
2022-12-31T05:17:51.001Z,0.72
2022-12-31T05:18:50.987Z,1.06
2022-12-31T05:19:50.999Z,0.89
2022-12-31T05:20:50.993Z,0.72
2022-12-31T05:21:50.997Z,1.17
2022-12-31T05:22:51.005Z,1.17
2022-12-31T05:23:50.988Z,0.89
2022-12-31T05:24:50.994Z,1.06
2022-12-31T05:25:50.994Z,1.33
2022-12-31T05:26:50.996Z,1.06
2022-12-31T05:27:51.016Z,1.17
2022-12-31T05:28:51.024Z,1.17
2022-12-31T05:29:50.988Z,1.06
2022-12-31T05:30:51.087Z,1.06
2022-12-31T05:31:51.001Z,0.89
2022-12-31T05:32:50.988Z,0.72
2022-12-31T05:33:50.993Z,1.06
2022-12-31T05:34:51.025Z,0.72
2022-12-31T05:35:50.998Z,1.17
2022-12-31T05:36:51.001Z,1.06
2022-12-31T05:37:50.998Z,1.33
2022-12-31T05:38:51.001Z,1.06
2022-12-31T05:39:50.992Z,1.17
2022-12-31T05:40:51.004Z,1.5
2022-12-31T05:41:51.007Z,1.33
2022-12-31T05:42:51.003Z,1.17
2022-12-31T05:43:50.997Z,1.17
2022-12-31T05:44:51.036Z,1.5
2022-12-31T05:45:51.043Z,1.17
2022-12-31T05:46:51.006Z,1.5
2022-12-31T05:47:51.000Z,1.06
2022-12-31T05:48:50.997Z,1.17
2022-12-31T05:49:51.020Z,0.72
2022-12-31T05:50:51.008Z,0.61
2022-12-31T05:51:51.002Z,0.89
2022-12-31T05:52:51.031Z,0.61
2022-12-31T05:53:51.014Z,0.89
2022-12-31T05:54:51.013Z,0.61
2022-12-31T05:55:51.017Z,0.72
2022-12-31T05:56:51.022Z,0.89
2022-12-31T05:57:51.035Z,0.61
2022-12-31T05:58:51.026Z,0.89
2022-12-31T05:59:51.023Z,1.06
2022-12-31T06:00:51.072Z,0.89
2022-12-31T06:01:51.031Z,1.06
2022-12-31T06:02:51.068Z,0.72
2022-12-31T06:03:51.105Z,1.06
2022-12-31T06:04:51.026Z,1.06
2022-12-31T06:05:51.042Z,1.17
2022-12-31T06:06:51.048Z,1.33
2022-12-31T06:07:51.040Z,1.33
2022-12-31T06:08:51.043Z,1.33
2022-12-31T06:09:51.036Z,1.06
2022-12-31T06:10:51.052Z,0.89
2022-12-31T06:11:51.058Z,0.89
2022-12-31T06:12:51.049Z,0.89
2022-12-31T06:13:51.050Z,0.72
2022-12-31T06:14:51.056Z,0.89
2022-12-31T06:15:51.065Z,1.17
2022-12-31T06:16:51.059Z,1.33
2022-12-31T06:17:51.041Z,1.33
2022-12-31T06:18:51.036Z,0.61
2022-12-31T06:19:51.037Z,1.06
2022-12-31T06:20:51.151Z,0.72
2022-12-31T06:21:51.039Z,0.89
2022-12-31T06:22:51.068Z,1.06
2022-12-31T06:23:51.043Z,0.89
2022-12-31T06:24:51.051Z,0.72
2022-12-31T06:25:51.054Z,0.72
2022-12-31T06:26:51.050Z,1.17
2022-12-31T06:27:51.056Z,0.72
2022-12-31T06:28:51.057Z,0.89
2022-12-31T06:29:51.088Z,1.06
2022-12-31T06:30:51.104Z,1.33
2022-12-31T06:31:51.071Z,1.33
2022-12-31T06:32:51.080Z,0.89
2022-12-31T06:33:51.053Z,0.89
2022-12-31T06:34:51.074Z,0.89
2022-12-31T06:35:51.069Z,0.89
2022-12-31T06:36:51.060Z,0.72
2022-12-31T06:37:51.059Z,0.89
2022-12-31T06:38:51.061Z,0.89
2022-12-31T06:39:51.069Z,0.89
2022-12-31T06:40:51.077Z,1.06
2022-12-31T06:41:51.079Z,0.89
2022-12-31T06:42:54.664Z,0.61
2022-12-31T06:43:51.072Z,0.72
2022-12-31T06:44:51.084Z,0.44
2022-12-31T06:45:51.073Z,0.89
2022-12-31T06:46:51.136Z,0.89
2022-12-31T06:47:51.061Z,0.89
2022-12-31T06:48:51.093Z,0.89
2022-12-31T06:49:51.076Z,0.89
2022-12-31T06:50:51.075Z,0.72
2022-12-31T06:51:51.089Z,0.72
2022-12-31T06:52:51.075Z,0.72
2022-12-31T06:53:51.098Z,0.89
2022-12-31T06:54:51.074Z,0.89
2022-12-31T06:55:51.088Z,1.06
2022-12-31T06:56:51.078Z,1.06
2022-12-31T06:57:51.092Z,0.72
2022-12-31T06:58:51.092Z,1.33
2022-12-31T06:59:51.082Z,1.17
2022-12-31T07:00:51.085Z,1.06
2022-12-31T07:01:51.173Z,1.61
2022-12-31T07:02:51.166Z,1.17
2022-12-31T07:03:51.099Z,1.5
2022-12-31T07:04:51.135Z,1.33
2022-12-31T07:05:51.092Z,1.5
2022-12-31T07:06:51.090Z,1.33
2022-12-31T07:07:51.099Z,1.61
2022-12-31T07:08:51.101Z,1.5
2022-12-31T07:09:51.147Z,1.61
2022-12-31T07:10:51.100Z,1.72
2022-12-31T07:11:51.101Z,1.5
2022-12-31T07:12:51.097Z,1.5
2022-12-31T07:13:51.118Z,1.33
2022-12-31T07:14:51.100Z,0.61
2022-12-31T07:15:51.157Z,1.17
2022-12-31T07:16:51.115Z,1.17
2022-12-31T07:17:51.126Z,1.33
2022-12-31T07:18:51.107Z,1.17
2022-12-31T07:19:57.250Z,1.06
2022-12-31T07:20:51.131Z,1.5
2022-12-31T07:21:51.109Z,1.5
2022-12-31T07:22:51.117Z,1.33
2022-12-31T07:23:51.123Z,1.72
2022-12-31T07:24:51.115Z,1.61
2022-12-31T07:25:51.143Z,1.61
2022-12-31T07:26:56.102Z,1.72
2022-12-31T07:27:51.114Z,1.61
2022-12-31T07:28:51.122Z,1.61
2022-12-31T07:29:51.145Z,1.72
2022-12-31T07:30:51.131Z,1.72
2022-12-31T07:31:51.129Z,1.5
2022-12-31T07:32:51.123Z,1.72
2022-12-31T07:33:51.123Z,1.72
2022-12-31T07:34:51.135Z,1.61
2022-12-31T07:35:51.139Z,1.61
2022-12-31T07:36:51.158Z,1.72
2022-12-31T07:37:51.132Z,1.61
2022-12-31T07:38:51.138Z,1.72
2022-12-31T07:39:51.138Z,1.72
2022-12-31T07:40:51.118Z,1.72
2022-12-31T07:41:51.139Z,1.72
2022-12-31T07:42:51.120Z,1.72
2022-12-31T07:43:51.149Z,2
2022-12-31T07:44:51.158Z,1.89
2022-12-31T07:45:51.179Z,2
2022-12-31T07:46:51.164Z,2
2022-12-31T07:47:51.148Z,2
2022-12-31T07:48:51.137Z,1.89
2022-12-31T07:49:51.140Z,1.89
2022-12-31T07:50:51.147Z,1.89
2022-12-31T07:51:51.156Z,1.89
2022-12-31T07:52:51.178Z,2
2022-12-31T07:53:51.147Z,1.72
2022-12-31T07:54:51.164Z,2.17
2022-12-31T07:55:51.142Z,2
2022-12-31T07:56:51.152Z,2.17
2022-12-31T07:57:51.150Z,1.89
2022-12-31T07:58:51.163Z,2
2022-12-31T07:59:51.153Z,1.89
2022-12-31T08:00:51.239Z,1.89
2022-12-31T08:01:51.308Z,1.72
2022-12-31T08:02:51.175Z,1.89
2022-12-31T08:03:51.160Z,2.17
2022-12-31T08:04:51.153Z,2
2022-12-31T08:05:51.155Z,1.72
2022-12-31T08:06:51.175Z,2
2022-12-31T08:07:51.178Z,2
2022-12-31T08:08:51.220Z,2
2022-12-31T08:09:51.173Z,2
2022-12-31T08:10:51.175Z,2
2022-12-31T08:11:51.176Z,2.17
2022-12-31T08:12:51.178Z,2
2022-12-31T08:13:51.168Z,2.17
2022-12-31T08:14:51.172Z,1.89
2022-12-31T08:15:51.199Z,1.89
2022-12-31T08:16:51.188Z,2
2022-12-31T08:17:51.186Z,2
2022-12-31T08:18:51.181Z,2
2022-12-31T08:19:51.190Z,1.89
2022-12-31T08:20:51.180Z,2
2022-12-31T08:21:51.186Z,1.61
2022-12-31T08:22:51.179Z,1.89
2022-12-31T08:23:51.198Z,1.89
2022-12-31T08:24:51.219Z,1.61
2022-12-31T08:25:51.184Z,2
2022-12-31T08:26:53.268Z,1.89
2022-12-31T08:27:51.198Z,1.72
2022-12-31T08:28:51.193Z,1.89
2022-12-31T08:29:51.196Z,1.89
2022-12-31T08:30:51.193Z,2.28
2022-12-31T08:31:51.237Z,2
2022-12-31T08:32:51.200Z,2.17
2022-12-31T08:33:51.204Z,2.28
2022-12-31T08:34:51.198Z,2.17
2022-12-31T08:35:51.211Z,2.28
2022-12-31T08:36:51.194Z,2.17
2022-12-31T08:37:51.203Z,2.44
2022-12-31T08:38:51.199Z,2.28
2022-12-31T08:39:51.194Z,2.44
2022-12-31T08:40:51.246Z,2.44
2022-12-31T08:41:51.210Z,2.44
2022-12-31T08:42:51.199Z,2.44
2022-12-31T08:43:51.204Z,2.44
2022-12-31T08:44:51.201Z,2.44
2022-12-31T08:45:51.251Z,2.44
2022-12-31T08:46:51.208Z,2.61
2022-12-31T08:47:55.109Z,2.17
2022-12-31T08:48:51.200Z,2.28
2022-12-31T08:49:51.207Z,2.28
2022-12-31T08:50:51.209Z,2.61
2022-12-31T08:51:51.225Z,2.72
2022-12-31T08:52:51.219Z,3
2022-12-31T08:53:51.214Z,2.72
2022-12-31T08:54:51.219Z,2.89
2022-12-31T08:55:51.232Z,2.89
2022-12-31T08:56:51.252Z,2.89
2022-12-31T08:57:51.218Z,3
2022-12-31T08:58:51.218Z,2.89
2022-12-31T08:59:51.233Z,2.28
2022-12-31T09:00:51.253Z,2.44
2022-12-31T09:01:51.326Z,2.61
2022-12-31T09:02:51.231Z,2.72
2022-12-31T09:03:51.271Z,2.89
2022-12-31T09:04:51.236Z,3
2022-12-31T09:05:51.224Z,3
2022-12-31T09:06:51.235Z,2.72
2022-12-31T09:07:51.242Z,3
2022-12-31T09:08:51.230Z,3
2022-12-31T09:09:51.235Z,3
2022-12-31T09:10:51.230Z,2.72
2022-12-31T09:11:51.266Z,3
2022-12-31T09:12:51.253Z,3
2022-12-31T09:13:51.236Z,2.61
2022-12-31T09:14:51.236Z,2.72
2022-12-31T09:15:51.244Z,2.89
2022-12-31T09:16:51.292Z,3
2022-12-31T09:17:51.240Z,3
2022-12-31T09:18:51.249Z,3
2022-12-31T09:19:51.256Z,3
2022-12-31T09:20:51.253Z,2.72
2022-12-31T09:21:51.239Z,3
2022-12-31T09:22:51.246Z,2.44
2022-12-31T09:23:51.242Z,2.61
2022-12-31T09:24:51.239Z,2.72
2022-12-31T09:25:51.251Z,2.17
2022-12-31T09:26:51.259Z,2.28
2022-12-31T09:27:51.253Z,2.61
2022-12-31T09:28:51.305Z,2.17
2022-12-31T09:29:51.254Z,2.28
2022-12-31T09:30:51.243Z,2.44
2022-12-31T09:31:51.328Z,2.61
2022-12-31T09:32:55.439Z,2.72
2022-12-31T09:33:51.247Z,3
2022-12-31T09:34:51.259Z,3.17
2022-12-31T09:35:51.255Z,3.17
2022-12-31T09:36:51.262Z,2.89
2022-12-31T09:37:51.255Z,2.72
2022-12-31T09:38:51.262Z,2.72
2022-12-31T09:39:51.249Z,2.72
2022-12-31T09:40:51.249Z,3
2022-12-31T09:41:51.269Z,2.72
2022-12-31T09:42:51.266Z,3
2022-12-31T09:43:53.424Z,3
2022-12-31T09:44:51.284Z,3
2022-12-31T09:45:51.269Z,2.89
2022-12-31T09:46:51.259Z,2.44
2022-12-31T09:47:51.316Z,3
2022-12-31T09:48:51.282Z,3
2022-12-31T09:49:51.269Z,3
2022-12-31T09:50:51.270Z,3
2022-12-31T09:51:51.274Z,3
2022-12-31T09:52:51.277Z,3.17
2022-12-31T09:53:51.269Z,3
2022-12-31T09:54:51.268Z,3.17
2022-12-31T09:55:51.290Z,3
2022-12-31T09:56:55.550Z,3
2022-12-31T09:57:51.285Z,3
2022-12-31T09:58:51.281Z,3
2022-12-31T09:59:51.275Z,3
2022-12-31T10:00:51.301Z,2.72
2022-12-31T10:01:51.468Z,3.17
2022-12-31T10:02:51.356Z,3.56
2022-12-31T10:03:51.281Z,3.56
2022-12-31T10:04:51.273Z,3.72
2022-12-31T10:05:51.283Z,3.72
2022-12-31T10:06:51.285Z,3.56
2022-12-31T10:07:53.489Z,3.72
2022-12-31T10:08:51.287Z,3.56
2022-12-31T10:09:51.274Z,3.44
2022-12-31T10:10:51.286Z,3.72
2022-12-31T10:11:51.285Z,3.56
2022-12-31T10:12:51.281Z,3.44
2022-12-31T10:13:51.282Z,3.56
2022-12-31T10:14:51.289Z,3.44
2022-12-31T10:15:51.296Z,3.72
2022-12-31T10:16:51.330Z,3.56
2022-12-31T10:17:51.293Z,3.44
2022-12-31T10:18:51.281Z,3.56
2022-12-31T10:19:51.292Z,3.44
2022-12-31T10:20:51.295Z,3.44
2022-12-31T10:21:51.283Z,3
2022-12-31T10:22:51.296Z,3.17
2022-12-31T10:23:51.290Z,3
2022-12-31T10:24:51.290Z,3.56
2022-12-31T10:25:51.311Z,3.33
2022-12-31T10:26:53.328Z,3.44
2022-12-31T10:27:51.281Z,3.72
2022-12-31T10:28:51.276Z,3.56
2022-12-31T10:29:51.281Z,3.33
2022-12-31T10:30:51.357Z,3.33
2022-12-31T10:31:51.294Z,3.44
2022-12-31T10:32:51.323Z,3.33
2022-12-31T10:33:51.295Z,3.44
2022-12-31T10:34:51.298Z,3.72
2022-12-31T10:35:51.283Z,4.17
2022-12-31T10:36:51.296Z,3.72
2022-12-31T10:37:51.294Z,4.17
2022-12-31T10:38:51.297Z,4.28
2022-12-31T10:39:51.298Z,4.17
2022-12-31T10:40:51.308Z,4.28
2022-12-31T10:41:51.303Z,4.44
2022-12-31T10:42:51.309Z,4.44
2022-12-31T10:43:51.297Z,4.17
2022-12-31T10:44:51.295Z,4.44
2022-12-31T10:45:51.360Z,4.44
2022-12-31T10:46:51.306Z,4.44
2022-12-31T10:47:51.295Z,4.56
2022-12-31T10:48:51.318Z,4.72
2022-12-31T10:49:51.310Z,4.56
2022-12-31T10:50:51.285Z,4.72
2022-12-31T10:51:51.292Z,4.72
2022-12-31T10:52:51.293Z,5.17
2022-12-31T10:53:51.301Z,4.89
2022-12-31T10:54:51.313Z,4.72
2022-12-31T10:55:51.305Z,4.72
2022-12-31T10:56:51.303Z,4.72
2022-12-31T10:57:51.297Z,4.56
2022-12-31T10:58:51.311Z,4.56
2022-12-31T10:59:51.316Z,4.44
2022-12-31T11:00:51.307Z,4.28
2022-12-31T11:01:51.365Z,4.17
2022-12-31T11:02:51.365Z,4.39
2022-12-31T11:03:51.308Z,4.44
2022-12-31T11:04:51.388Z,3.83
2022-12-31T11:05:51.307Z,4.44
2022-12-31T11:06:51.324Z,4.17
2022-12-31T11:07:51.308Z,4.17
2022-12-31T11:08:51.310Z,4
2022-12-31T11:09:51.309Z,4.17
2022-12-31T11:10:51.309Z,4.39
2022-12-31T11:11:51.308Z,4.56
2022-12-31T11:12:51.318Z,4.56
2022-12-31T11:13:51.325Z,4.72
2022-12-31T11:14:51.320Z,4.28
2022-12-31T11:15:51.457Z,4.56
2022-12-31T11:16:51.323Z,4.44
2022-12-31T11:17:51.324Z,4.56
2022-12-31T11:18:51.316Z,4.5
2022-12-31T11:19:51.311Z,4.39
2022-12-31T11:20:51.356Z,4.28
2022-12-31T11:21:51.330Z,4.56
2022-12-31T11:22:51.321Z,4.72
2022-12-31T11:23:51.317Z,4.56
2022-12-31T11:24:51.311Z,4.5
2022-12-31T11:25:51.332Z,4.72
2022-12-31T11:26:51.339Z,4.78
2022-12-31T11:27:51.307Z,4.22
2022-12-31T11:28:51.324Z,4.83
2022-12-31T11:29:51.322Z,4.5
2022-12-31T11:30:51.406Z,4.61
2022-12-31T11:31:51.331Z,4.61
2022-12-31T11:32:51.348Z,4.11
2022-12-31T11:33:51.327Z,4.39
2022-12-31T11:34:51.352Z,4.67
2022-12-31T11:35:51.328Z,4.67
2022-12-31T11:36:51.365Z,4.67
2022-12-31T11:37:51.355Z,4.94
2022-12-31T11:38:51.357Z,4.94
2022-12-31T11:39:51.332Z,4.39
2022-12-31T11:40:51.328Z,4.39
2022-12-31T11:41:51.345Z,4.11
2022-12-31T11:42:51.332Z,4.11
2022-12-31T11:43:51.339Z,3.94
2022-12-31T11:44:51.333Z,4.39
2022-12-31T11:45:51.331Z,4.39
2022-12-31T11:46:51.355Z,4.67
2022-12-31T11:48:28.316Z,4.5
2022-12-31T11:48:51.330Z,4.67
2022-12-31T11:49:51.355Z,4.5
2022-12-31T11:50:51.354Z,4.5
2022-12-31T11:51:51.349Z,4.39
2022-12-31T11:52:51.363Z,4.5
2022-12-31T11:53:51.342Z,4.67
2022-12-31T11:54:51.338Z,4.67
2022-12-31T11:55:51.345Z,4.83
2022-12-31T11:56:51.335Z,4.5
2022-12-31T11:57:51.353Z,4.5
2022-12-31T11:58:51.350Z,4.5
2022-12-31T11:59:51.349Z,4.5
2022-12-31T12:00:51.347Z,4.5
2022-12-31T12:01:51.345Z,4.22
2022-12-31T12:02:51.362Z,4.39
2022-12-31T12:03:51.365Z,4.22
2022-12-31T12:04:51.343Z,4.22
2022-12-31T12:05:51.333Z,4.5
2022-12-31T12:06:51.345Z,4.83
2022-12-31T12:07:51.362Z,4.94
2022-12-31T12:08:51.401Z,5.11
2022-12-31T12:09:51.347Z,4.83
2022-12-31T12:10:51.345Z,5.22
2022-12-31T12:11:51.364Z,5.39
2022-12-31T12:12:51.346Z,5.39
2022-12-31T12:13:51.352Z,5.67
2022-12-31T12:14:51.348Z,5.56
2022-12-31T12:15:51.488Z,5.67
2022-12-31T12:16:51.359Z,5.39
2022-12-31T12:17:51.360Z,5.11
2022-12-31T12:18:51.364Z,5.22
2022-12-31T12:19:51.376Z,5.56
2022-12-31T12:20:51.351Z,5.67
2022-12-31T12:21:51.357Z,5.56
2022-12-31T12:22:51.361Z,5.39
2022-12-31T12:23:51.358Z,5.22
2022-12-31T12:24:51.393Z,5.39
2022-12-31T12:25:51.375Z,5.56
2022-12-31T12:26:51.360Z,5.56
2022-12-31T12:27:51.362Z,5.56
2022-12-31T12:28:51.352Z,5.56
2022-12-31T12:29:51.358Z,5.67
2022-12-31T12:30:51.355Z,5.78
2022-12-31T12:31:51.353Z,5.67
2022-12-31T12:32:51.371Z,5.56
2022-12-31T12:33:51.370Z,5.39
2022-12-31T12:34:51.359Z,5.67
2022-12-31T12:35:51.352Z,5.67
2022-12-31T12:36:51.364Z,5.56
2022-12-31T12:37:51.364Z,5.39
2022-12-31T12:38:51.356Z,5.78
2022-12-31T12:39:51.351Z,5.56
2022-12-31T12:40:51.375Z,5.67
2022-12-31T12:41:51.362Z,5.94
2022-12-31T12:42:51.359Z,6.06
2022-12-31T12:43:51.361Z,6.22
2022-12-31T12:44:51.370Z,6.22
2022-12-31T12:45:52.477Z,5.78
2022-12-31T12:46:51.381Z,5.78
2022-12-31T12:47:51.352Z,5.78
2022-12-31T12:48:51.345Z,5.56
2022-12-31T12:49:51.360Z,5.56
2022-12-31T12:50:51.364Z,5.94
2022-12-31T12:51:51.376Z,5.78
2022-12-31T12:52:55.037Z,5.94
2022-12-31T12:53:51.365Z,5.94
2022-12-31T12:54:51.351Z,5.56
2022-12-31T12:55:51.378Z,5.78
2022-12-31T12:56:51.379Z,5.67
2022-12-31T12:57:51.359Z,5.22
2022-12-31T12:58:51.390Z,5.39
2022-12-31T12:59:51.378Z,5.11
2022-12-31T13:00:51.418Z,5.56
2022-12-31T13:01:51.532Z,5.67
2022-12-31T13:02:51.389Z,5.39
2022-12-31T13:04:23.647Z,5.39
2022-12-31T13:04:51.357Z,5.56
2022-12-31T13:05:51.383Z,5.39
2022-12-31T13:06:51.387Z,5.39
2022-12-31T13:07:51.380Z,5.56
2022-12-31T13:08:51.397Z,5.22
2022-12-31T13:09:51.367Z,5.22
2022-12-31T13:10:51.387Z,5.56
2022-12-31T13:11:51.370Z,5.56
2022-12-31T13:13:51.383Z,5.11
2022-12-31T13:14:51.370Z,5.11
2022-12-31T13:15:51.377Z,5.11
2022-12-31T13:16:51.378Z,4.94
2022-12-31T13:17:55.109Z,4.83
2022-12-31T13:18:51.370Z,4.83
2022-12-31T13:19:51.366Z,5.11
2022-12-31T13:20:51.398Z,5.39
2022-12-31T13:21:51.385Z,4.94
2022-12-31T13:22:51.381Z,4.94
2022-12-31T13:23:51.380Z,4.83
2022-12-31T13:24:51.384Z,4.94
2022-12-31T13:25:51.392Z,4.83